createdAt,value
2023-08-19T00:01:57.051Z,56.95
2023-08-19T00:04:24.021Z,52.45
2023-08-19T00:06:51.115Z,51.83
2023-08-19T00:09:18.169Z,60.65
2023-08-19T00:11:45.212Z,56.17
2023-08-19T00:14:12.194Z,56.08
2023-08-19T00:16:39.273Z,57.08
2023-08-19T00:19:06.289Z,54.72
2023-08-19T00:21:33.218Z,57.22
2023-08-19T00:24:00.368Z,57.58
2023-08-19T00:26:27.432Z,50.63
2023-08-19T00:28:54.462Z,36.58
2023-08-19T00:31:21.611Z,29.58
2023-08-19T00:33:48.636Z,24.60
2023-08-19T00:36:15.815Z,25.27
2023-08-19T00:38:42.804Z,23.27
2023-08-19T00:41:09.805Z,22.67
2023-08-19T00:43:37.648Z,20.95
2023-08-19T00:46:04.945Z,19.95
2023-08-19T00:48:32.015Z,18.23
2023-08-19T00:51:00.049Z,16.80
2023-08-19T00:53:27.115Z,17.45
2023-08-19T00:55:54.732Z,17.17
2023-08-19T00:58:21.766Z,17.73
2023-08-19T01:00:48.824Z,18.10
2023-08-19T01:03:15.873Z,19.75
2023-08-19T01:06:20.699Z,19.08
2023-08-19T01:09:16.542Z,18.50
2023-08-19T01:12:07.221Z,16.83
2023-08-19T01:14:37.105Z,17.25
2023-08-19T01:17:05.183Z,17.38
2023-08-19T01:19:33.005Z,16.02
2023-08-19T01:22:03.743Z,14.77
2023-08-19T01:24:40.398Z,13.43
2023-08-19T01:27:08.225Z,14.35
2023-08-19T01:29:35.725Z,12.95
2023-08-19T01:32:02.762Z,12.48
2023-08-19T01:34:29.736Z,12.02
2023-08-19T01:37:02.478Z,11.55
2023-08-19T01:39:29.469Z,12.10
2023-08-19T01:41:57.100Z,11.30
2023-08-19T01:44:24.070Z,10.00
2023-08-19T01:46:51.008Z,9.30
2023-08-19T01:49:17.921Z,9.80
2023-08-19T01:51:44.866Z,9.80
2023-08-19T01:54:11.830Z,8.68
2023-08-19T01:56:38.882Z,9.43
2023-08-19T01:59:05.850Z,9.35
2023-08-19T02:01:32.948Z,9.30
2023-08-19T02:03:59.962Z,8.57
2023-08-19T02:06:26.957Z,9.73
2023-08-19T02:08:53.962Z,8.63
2023-08-19T02:11:21.288Z,9.02
2023-08-19T02:13:48.288Z,7.82
2023-08-19T02:16:15.362Z,7.50
2023-08-19T02:18:42.447Z,9.20
2023-08-19T02:21:09.418Z,8.90
2023-08-19T02:23:36.398Z,9.65
2023-08-19T02:26:03.327Z,7.57
2023-08-19T02:28:30.283Z,12.30
2023-08-19T02:31:04.061Z,7.65
2023-08-19T02:33:31.107Z,8.60
2023-08-19T02:35:58.122Z,10.00
2023-08-19T02:38:25.142Z,8.13
2023-08-19T02:40:52.522Z,9.48
2023-08-19T02:43:19.593Z,8.45
2023-08-19T02:45:47.429Z,10.07
2023-08-19T02:48:14.618Z,6.25
2023-08-19T02:50:42.335Z,9.45
2023-08-19T02:53:09.362Z,9.35
2023-08-19T02:55:43.369Z,9.18
2023-08-19T02:58:10.723Z,6.43
2023-08-19T03:00:38.743Z,6.68
2023-08-19T03:03:07.131Z,8.68
2023-08-19T03:05:40.425Z,8.60
2023-08-19T03:08:08.382Z,6.78
2023-08-19T03:10:39.436Z,8.25
2023-08-19T03:13:07.403Z,7.32
2023-08-19T03:15:34.986Z,7.97
2023-08-19T03:18:02.014Z,8.38
2023-08-19T03:20:29.783Z,8.00
2023-08-19T03:22:56.908Z,7.70
2023-08-19T03:25:23.848Z,9.68
2023-08-19T03:27:50.861Z,7.75
2023-08-19T03:30:17.873Z,9.00
2023-08-19T03:32:45.024Z,10.52
2023-08-19T03:35:12.572Z,7.38
2023-08-19T03:37:39.629Z,7.95
2023-08-19T03:40:07.296Z,9.35
2023-08-19T03:42:34.335Z,8.38
2023-08-19T03:45:01.306Z,6.97
2023-08-19T03:47:29.951Z,8.45
2023-08-19T03:49:57.058Z,10.82
2023-08-19T03:52:25.250Z,8.82
2023-08-19T03:54:52.447Z,8.93
2023-08-19T03:57:19.481Z,8.05
2023-08-19T03:59:51.304Z,7.32
2023-08-19T04:02:19.106Z,7.22
2023-08-19T04:05:02.123Z,6.68
2023-08-19T04:07:29.130Z,9.48
2023-08-19T04:09:56.618Z,9.10
2023-08-19T04:12:26.823Z,9.98
2023-08-19T04:14:54.062Z,11.05
2023-08-19T04:17:21.417Z,8.50
2023-08-19T04:19:48.430Z,12.43
2023-08-19T04:22:18.780Z,9.52
2023-08-19T04:24:52.394Z,9.52
2023-08-19T04:27:19.535Z,11.10
2023-08-19T04:29:46.997Z,10.68
2023-08-19T04:32:15.512Z,11.25
2023-08-19T04:34:42.498Z,8.45
2023-08-19T04:37:10.433Z,9.85
2023-08-19T04:39:39.584Z,11.35
2023-08-19T04:42:14.458Z,10.27
2023-08-19T04:44:41.457Z,8.80
2023-08-19T04:47:08.536Z,12.43
2023-08-19T04:49:36.124Z,11.38
2023-08-19T04:52:04.665Z,10.68
2023-08-19T04:54:31.792Z,10.85
2023-08-19T04:56:59.152Z,14.30
2023-08-19T04:59:27.206Z,11.45
2023-08-19T05:01:54.288Z,12.43
2023-08-19T05:04:21.477Z,9.07
2023-08-19T05:06:49.426Z,10.90
2023-08-19T05:09:16.379Z,10.30
2023-08-19T05:11:43.669Z,12.15
2023-08-19T05:14:11.502Z,10.43
2023-08-19T05:16:38.467Z,12.27
2023-08-19T05:19:19.307Z,9.68
2023-08-19T05:24:16.627Z,11.48
2023-08-19T05:26:45.792Z,13.43
2023-08-19T05:29:13.332Z,8.50
2023-08-19T05:31:40.364Z,11.32
2023-08-19T05:34:10.386Z,13.20
2023-08-19T05:36:37.327Z,12.27
2023-08-19T05:39:04.853Z,10.40
2023-08-19T05:41:31.897Z,10.23
2023-08-19T05:43:58.917Z,12.52
2023-08-19T05:46:25.916Z,10.75
2023-08-19T05:48:53.545Z,12.77
2023-08-19T05:51:20.568Z,14.43
2023-08-19T05:53:47.527Z,10.55
2023-08-19T05:56:14.532Z,15.23
2023-08-19T05:58:41.787Z,9.60
2023-08-19T06:01:08.891Z,12.18
2023-08-19T06:03:37.070Z,9.35
2023-08-19T06:06:05.938Z,12.13
2023-08-19T06:08:33.067Z,12.40
2023-08-19T06:11:06.324Z,13.88
2023-08-19T06:13:36.720Z,10.90
2023-08-19T06:16:07.562Z,11.70
2023-08-19T06:18:34.715Z,12.57
2023-08-19T06:21:03.346Z,11.15
2023-08-19T06:23:30.303Z,11.63
2023-08-19T06:25:57.282Z,13.38
2023-08-19T06:28:24.253Z,11.93
2023-08-19T06:30:52.083Z,12.90
2023-08-19T06:33:19.572Z,15.68
2023-08-19T06:35:50.977Z,13.18
2023-08-19T06:38:25.038Z,12.13
2023-08-19T06:40:57.185Z,12.18
2023-08-19T06:43:27.857Z,11.48
2023-08-19T06:45:58.280Z,13.23
2023-08-19T06:48:25.594Z,11.13
2023-08-19T06:50:56.120Z,14.93
2023-08-19T06:53:23.307Z,12.85
2023-08-19T06:56:08.972Z,13.30
2023-08-19T06:58:39.445Z,13.70
2023-08-19T07:01:08.971Z,13.30
2023-08-19T07:03:36.196Z,10.40
2023-08-19T07:06:03.991Z,12.75
2023-08-19T07:08:31.745Z,12.23
2023-08-19T07:11:02.235Z,13.07
2023-08-19T07:13:29.730Z,11.85
2023-08-19T07:16:06.540Z,8.80
2023-08-19T07:18:36.286Z,11.98
2023-08-19T07:21:03.983Z,9.70
2023-08-19T07:23:31.084Z,9.82
2023-08-19T07:25:59.603Z,11.23
2023-08-19T07:28:26.816Z,9.68
2023-08-19T07:30:54.191Z,11.15
2023-08-19T07:33:21.263Z,12.10
2023-08-19T07:35:48.214Z,11.85
2023-08-19T07:38:15.215Z,12.18
2023-08-19T07:40:42.510Z,12.70
2023-08-19T07:43:10.053Z,11.27
2023-08-19T07:45:37.726Z,11.38
2023-08-19T07:48:05.104Z,11.88
2023-08-19T07:50:32.110Z,9.35
2023-08-19T07:52:59.210Z,9.88
2023-08-19T07:55:26.241Z,10.40
2023-08-19T07:57:53.294Z,9.95
2023-08-19T08:00:20.282Z,15.38
2023-08-19T08:02:47.610Z,9.93
2023-08-19T08:05:14.702Z,7.95
2023-08-19T08:07:41.759Z,9.25
2023-08-19T08:10:09.161Z,9.35
2023-08-19T08:12:36.094Z,11.48
2023-08-19T08:15:04.674Z,10.30
2023-08-19T08:17:32.369Z,10.88
2023-08-19T08:19:59.804Z,11.25
2023-08-19T08:22:26.836Z,13.25
2023-08-19T08:24:54.148Z,12.90
2023-08-19T08:27:21.200Z,9.98
2023-08-19T08:29:48.223Z,11.25
2023-08-19T08:32:15.786Z,8.30
2023-08-19T08:34:42.804Z,9.30
2023-08-19T08:37:09.918Z,11.77
2023-08-19T08:39:36.865Z,9.05
2023-08-19T08:42:04.058Z,8.75
2023-08-19T08:44:31.029Z,9.98
2023-08-19T08:46:58.214Z,9.07
2023-08-19T08:49:25.970Z,9.48
2023-08-19T08:51:52.928Z,9.15
2023-08-19T08:54:20.863Z,9.15
2023-08-19T08:56:47.815Z,7.30
2023-08-19T08:59:14.879Z,8.75
2023-08-19T09:01:43.320Z,8.13
2023-08-19T09:04:10.346Z,9.75
2023-08-19T09:06:39.004Z,8.02
2023-08-19T09:09:12.256Z,9.07
2023-08-19T09:11:41.195Z,9.25
2023-08-19T09:14:30.138Z,6.88
2023-08-19T09:16:57.100Z,7.25
2023-08-19T09:19:24.247Z,8.95
2023-08-19T09:21:51.245Z,7.47
2023-08-19T09:24:18.324Z,9.18
2023-08-19T09:26:45.728Z,9.02
2023-08-19T09:29:13.171Z,6.20
2023-08-19T09:31:40.922Z,6.55
2023-08-19T09:34:08.098Z,6.00
2023-08-19T09:36:35.094Z,8.02
2023-08-19T09:39:02.131Z,7.28
2023-08-19T09:41:30.429Z,7.18
2023-08-19T09:43:58.248Z,7.10
2023-08-19T09:46:33.110Z,8.35
2023-08-19T09:49:00.386Z,6.55
2023-08-19T09:51:28.627Z,7.70
2023-08-19T09:53:56.624Z,9.45
2023-08-19T09:56:27.631Z,5.85
2023-08-19T09:58:55.040Z,5.35
2023-08-19T10:01:24.411Z,5.75
2023-08-19T10:03:52.929Z,6.82
2023-08-19T10:06:27.468Z,6.13
2023-08-19T10:09:05.887Z,5.65
2023-08-19T10:11:32.920Z,6.50
2023-08-19T10:14:02.167Z,5.57
2023-08-19T10:16:29.217Z,7.28
2023-08-19T10:18:56.219Z,6.35
2023-08-19T10:21:23.222Z,5.40
2023-08-19T10:23:50.191Z,5.72
2023-08-19T10:26:17.383Z,7.03
2023-08-19T10:29:03.909Z,6.80
2023-08-19T10:31:31.091Z,5.95
2023-08-19T10:33:58.142Z,6.45
2023-08-19T10:36:30.358Z,6.13
2023-08-19T10:38:58.636Z,7.28
2023-08-19T10:41:30.110Z,9.98
2023-08-19T10:44:01.491Z,6.13
2023-08-19T10:49:00.036Z,7.72
2023-08-19T10:51:45.733Z,6.05
2023-08-19T10:54:12.775Z,7.07
2023-08-19T10:56:45.610Z,6.65
2023-08-19T10:59:12.617Z,7.55
2023-08-19T11:01:39.733Z,7.78
2023-08-19T11:04:06.769Z,8.20
2023-08-19T11:06:35.200Z,6.90
2023-08-19T11:09:02.245Z,7.50
2023-08-19T11:11:29.322Z,7.57
2023-08-19T11:13:56.362Z,6.35
2023-08-19T11:16:28.607Z,8.77
2023-08-19T11:18:58.000Z,8.38
2023-08-19T11:21:26.019Z,8.55
2023-08-19T11:23:53.668Z,7.53
2023-08-19T11:26:20.768Z,8.57
2023-08-19T11:28:49.437Z,7.78
2023-08-19T11:31:16.468Z,6.55
2023-08-19T11:33:43.560Z,9.85
2023-08-19T11:36:10.604Z,6.05
2023-08-19T11:38:37.559Z,7.32
2023-08-19T11:41:05.603Z,6.85
2023-08-19T11:43:47.862Z,8.13
2023-08-19T11:46:14.861Z,8.80
2023-08-19T11:48:41.854Z,8.48
2023-08-19T11:51:12.320Z,7.97
2023-08-19T11:53:39.687Z,10.67
2023-08-19T11:56:06.908Z,7.05
2023-08-19T11:58:51.094Z,9.30
2023-08-19T12:01:27.226Z,8.27
2023-08-19T12:03:56.290Z,8.20
2023-08-19T12:06:23.514Z,9.93
2023-08-19T12:08:50.598Z,7.95
2023-08-19T12:11:25.856Z,8.77
2023-08-19T12:13:53.408Z,8.73
2023-08-19T12:16:21.162Z,8.05
2023-08-19T12:18:48.346Z,6.90
2023-08-19T12:21:15.364Z,8.65
2023-08-19T12:23:42.329Z,7.05
2023-08-19T12:26:10.563Z,8.90
2023-08-19T12:28:37.932Z,7.45
2023-08-19T12:31:04.878Z,7.57
2023-08-19T12:33:32.197Z,10.05
2023-08-19T12:36:08.583Z,8.35
2023-08-19T12:38:44.637Z,9.27
2023-08-19T12:41:11.653Z,8.40
2023-08-19T12:43:39.579Z,7.53
2023-08-19T12:46:06.913Z,8.00
2023-08-19T12:48:34.057Z,9.50
2023-08-19T12:51:01.650Z,8.15
2023-08-19T12:53:28.789Z,6.30
2023-08-19T12:55:55.919Z,8.75
2023-08-19T12:58:22.932Z,9.57
2023-08-19T13:00:50.138Z,7.55
2023-08-19T13:03:17.222Z,7.65
2023-08-19T13:05:44.218Z,8.98
2023-08-19T13:08:12.224Z,6.88
2023-08-19T13:10:39.229Z,7.45
2023-08-19T13:13:07.156Z,9.98
2023-08-19T13:15:34.226Z,6.60
2023-08-19T13:18:01.306Z,6.35
2023-08-19T13:20:28.389Z,6.80
2023-08-19T13:22:55.964Z,7.30
2023-08-19T13:25:23.387Z,7.68
2023-08-19T13:27:50.397Z,6.85
2023-08-19T13:30:18.004Z,7.93
2023-08-19T13:32:45.060Z,9.05
2023-08-19T13:35:12.216Z,9.15
2023-08-19T13:37:39.334Z,10.75
2023-08-19T13:40:07.245Z,8.68
2023-08-19T13:42:34.641Z,8.20
2023-08-19T13:45:01.949Z,6.80
2023-08-19T13:47:29.052Z,7.82
2023-08-19T13:49:56.016Z,8.80
2023-08-19T13:52:38.350Z,7.32
2023-08-19T13:55:09.507Z,6.93
2023-08-19T13:57:36.976Z,8.63
2023-08-19T14:00:11.797Z,9.43
2023-08-19T14:02:40.719Z,8.40
2023-08-19T14:05:10.134Z,7.05
2023-08-19T14:07:37.250Z,6.75
2023-08-19T14:10:04.949Z,8.48
2023-08-19T14:12:31.933Z,7.25
2023-08-19T14:14:59.028Z,6.35
2023-08-19T14:17:26.001Z,7.13
2023-08-19T14:19:53.059Z,9.73
2023-08-19T14:22:20.030Z,8.38
2023-08-19T14:24:47.067Z,7.53
2023-08-19T14:27:14.068Z,9.68
2023-08-19T14:29:41.102Z,10.02
2023-08-19T14:32:11.072Z,9.45
2023-08-19T14:34:38.248Z,8.00
2023-08-19T14:37:05.355Z,8.35
2023-08-19T14:39:34.697Z,8.57
2023-08-19T14:42:01.754Z,8.68
2023-08-19T14:44:31.144Z,7.65
2023-08-19T14:46:58.942Z,9.15
2023-08-19T14:49:26.393Z,11.32
2023-08-19T14:51:53.481Z,7.82
2023-08-19T14:54:20.508Z,8.63
2023-08-19T14:56:47.459Z,9.43
2023-08-19T14:59:14.414Z,9.55
2023-08-19T15:01:41.578Z,7.32
2023-08-19T15:04:08.820Z,9.05
2023-08-19T15:06:35.800Z,10.07
2023-08-19T15:09:07.087Z,9.23
2023-08-19T15:14:11.010Z,8.93
2023-08-19T15:16:38.639Z,8.60
2023-08-19T15:19:06.002Z,8.57
2023-08-19T15:21:33.129Z,14.85
2023-08-19T15:24:02.296Z,8.77
2023-08-19T15:26:29.658Z,9.27
2023-08-19T15:28:57.224Z,9.13
2023-08-19T15:31:26.916Z,9.35
2023-08-19T15:33:54.988Z,12.40
2023-08-19T15:36:21.974Z,12.50
2023-08-19T15:38:49.021Z,7.55
2023-08-19T15:41:15.962Z,7.75
2023-08-19T15:43:43.000Z,8.40
2023-08-19T15:46:10.213Z,20.52
2023-08-19T15:48:37.219Z,11.32
2023-08-19T15:51:04.512Z,10.40
2023-08-19T15:53:31.474Z,10.25
2023-08-19T15:55:58.439Z,8.00
2023-08-19T15:58:25.460Z,8.85
2023-08-19T16:00:52.544Z,7.60
2023-08-19T16:03:19.692Z,8.13
2023-08-19T16:05:46.780Z,10.57
2023-08-19T16:08:13.762Z,6.88
2023-08-19T16:10:40.940Z,8.57
2023-08-19T16:13:08.637Z,7.15
2023-08-19T16:15:35.840Z,8.43
2023-08-19T16:18:02.958Z,10.20
2023-08-19T16:20:29.904Z,8.98
2023-08-19T16:22:56.867Z,7.75
2023-08-19T16:25:23.930Z,10.45
2023-08-19T16:27:53.109Z,9.43
2023-08-19T16:30:20.363Z,8.80
2023-08-19T16:32:47.415Z,8.77
2023-08-19T16:35:15.284Z,7.28
2023-08-19T16:37:42.320Z,12.10
2023-08-19T16:40:09.699Z,11.48
2023-08-19T16:42:36.894Z,12.10
2023-08-19T16:45:04.239Z,9.55
2023-08-19T16:47:31.892Z,10.88
2023-08-19T16:49:59.164Z,7.75
2023-08-19T16:52:28.341Z,7.80
2023-08-19T16:54:56.536Z,10.38
2023-08-19T16:57:23.656Z,8.73
2023-08-19T16:59:50.729Z,10.32
2023-08-19T17:02:17.783Z,11.77
2023-08-19T17:04:46.253Z,7.50
2023-08-19T17:07:13.323Z,7.97
2023-08-19T17:09:43.449Z,7.78
2023-08-19T17:12:10.470Z,8.48
2023-08-19T17:14:38.135Z,8.82
2023-08-19T17:17:05.679Z,8.85
2023-08-19T17:19:32.784Z,8.50
2023-08-19T17:22:00.458Z,9.70
2023-08-19T17:24:27.473Z,9.65
2023-08-19T17:26:54.461Z,8.10
2023-08-19T17:29:21.404Z,6.88
2023-08-19T17:31:48.396Z,8.85
2023-08-19T17:34:15.423Z,9.13
2023-08-19T17:36:42.795Z,9.52
2023-08-19T17:39:11.757Z,7.95
2023-08-19T17:41:38.851Z,10.23
2023-08-19T17:44:06.225Z,7.78
2023-08-19T17:46:34.525Z,8.82
2023-08-19T17:49:01.818Z,9.13
2023-08-19T17:51:28.775Z,8.93
2023-08-19T17:53:55.708Z,9.43
2023-08-19T17:56:22.723Z,8.00
2023-08-19T17:58:49.965Z,9.05
2023-08-19T18:01:16.970Z,9.30
2023-08-19T18:03:44.064Z,8.82
2023-08-19T18:06:11.106Z,10.32
2023-08-19T18:08:38.081Z,8.68
2023-08-19T18:11:05.033Z,7.50
2023-08-19T18:13:32.092Z,9.38
2023-08-19T18:15:59.117Z,10.38
2023-08-19T18:18:26.118Z,12.77
2023-08-19T18:20:56.349Z,9.25
2023-08-19T18:23:23.303Z,8.77
2023-08-19T18:25:50.549Z,8.43
2023-08-19T18:28:17.476Z,9.30
2023-08-19T18:30:44.475Z,9.25
2023-08-19T18:33:11.472Z,8.27
2023-08-19T18:35:38.494Z,12.40
2023-08-19T18:38:05.425Z,9.38
2023-08-19T18:40:34.449Z,9.02
2023-08-19T18:43:01.468Z,9.93
2023-08-19T18:45:28.676Z,10.00
2023-08-19T18:48:05.946Z,9.68
2023-08-19T18:50:33.941Z,11.30
2023-08-19T18:53:01.048Z,10.57
2023-08-19T18:55:28.925Z,8.18
2023-08-19T18:57:55.878Z,10.23
2023-08-19T19:00:22.943Z,9.98
2023-08-19T19:02:52.770Z,9.07
2023-08-19T19:05:20.317Z,11.27
2023-08-19T19:07:48.258Z,9.60
2023-08-19T19:10:15.997Z,9.95
2023-08-19T19:12:47.693Z,9.38
2023-08-19T19:15:15.232Z,9.18
2023-08-19T19:17:55.179Z,9.20
2023-08-19T19:20:22.626Z,10.55
2023-08-19T19:22:49.675Z,10.25
2023-08-19T19:25:21.522Z,9.73
2023-08-19T19:27:48.729Z,8.73
2023-08-19T19:30:17.249Z,9.98
2023-08-19T19:32:44.889Z,7.35
2023-08-19T19:35:13.621Z,9.20
2023-08-19T19:37:41.146Z,12.27
2023-08-19T19:40:08.651Z,10.73
2023-08-19T19:42:37.284Z,9.25
2023-08-19T19:45:05.607Z,9.05
2023-08-19T19:47:33.114Z,12.70
2023-08-19T19:50:00.498Z,14.63
2023-08-19T19:52:27.572Z,9.95
2023-08-19T19:54:54.633Z,9.82
2023-08-19T19:57:21.695Z,10.13
2023-08-19T19:59:48.731Z,9.32
2023-08-19T20:02:15.805Z,9.70
2023-08-19T20:04:42.759Z,9.50
2023-08-19T20:07:09.775Z,11.52
2023-08-19T20:09:36.805Z,11.95
2023-08-19T20:12:03.961Z,10.02
2023-08-19T20:14:30.895Z,12.60
2023-08-19T20:16:57.798Z,11.40
2023-08-19T20:19:25.578Z,10.13
2023-08-19T20:21:52.541Z,10.75
2023-08-19T20:24:19.572Z,12.35
2023-08-19T20:26:47.181Z,12.00
2023-08-19T20:29:14.320Z,9.88
2023-08-19T20:31:41.283Z,8.38
2023-08-19T20:34:08.308Z,13.32
2023-08-19T20:36:35.413Z,11.85
2023-08-19T20:39:02.483Z,10.55
2023-08-19T20:41:29.611Z,12.68
2023-08-19T20:44:09.445Z,11.20
2023-08-19T20:46:36.542Z,9.23
2023-08-19T20:49:03.998Z,10.70
2023-08-19T20:51:32.130Z,10.05
2023-08-19T20:54:00.554Z,10.82
2023-08-19T20:56:27.676Z,10.10
2023-08-19T20:58:57.462Z,10.98
2023-08-19T21:01:28.463Z,10.05
2023-08-19T21:03:55.858Z,11.93
2023-08-19T21:06:23.212Z,12.18
2023-08-19T21:08:50.299Z,13.13
2023-08-19T21:11:17.370Z,12.50
2023-08-19T21:13:44.465Z,11.25
2023-08-19T21:16:11.549Z,10.38
2023-08-19T21:18:38.669Z,11.45
2023-08-19T21:21:05.652Z,10.68
2023-08-19T21:23:35.122Z,10.10
2023-08-19T21:26:03.519Z,13.00
2023-08-19T21:28:32.129Z,9.95
2023-08-19T21:30:59.135Z,10.90
2023-08-19T21:33:26.185Z,15.20
2023-08-19T21:35:53.499Z,10.73
2023-08-19T21:38:20.827Z,9.77
2023-08-19T21:40:47.810Z,13.45
2023-08-19T21:43:15.273Z,11.05
2023-08-19T21:45:42.761Z,13.32
2023-08-19T21:48:11.402Z,9.52
2023-08-19T21:50:40.140Z,12.48
2023-08-19T21:53:07.751Z,13.93
2023-08-19T21:55:35.538Z,10.02
2023-08-19T21:58:02.790Z,10.82
2023-08-19T22:00:29.809Z,12.20
2023-08-19T22:02:56.889Z,13.30
2023-08-19T22:05:23.845Z,9.63
2023-08-19T22:07:51.126Z,13.02
2023-08-19T22:10:18.165Z,12.35
2023-08-19T22:12:45.134Z,12.75
2023-08-19T22:15:12.240Z,12.68
2023-08-19T22:17:39.355Z,14.73
2023-08-19T22:20:06.987Z,9.52
2023-08-19T22:22:34.055Z,11.55
2023-08-19T22:25:01.100Z,13.50
2023-08-19T22:27:28.028Z,12.00
2023-08-19T22:29:55.025Z,9.75
2023-08-19T22:32:21.962Z,12.23
2023-08-19T22:34:48.916Z,14.05
2023-08-19T22:37:16.093Z,10.52
2023-08-19T22:39:43.047Z,11.35
2023-08-19T22:42:10.119Z,13.05
2023-08-19T22:44:37.084Z,8.77
2023-08-19T22:47:04.589Z,11.02
2023-08-19T22:49:31.534Z,12.13
2023-08-19T22:51:59.602Z,9.73
2023-08-19T22:54:29.814Z,11.57
2023-08-19T22:56:56.814Z,8.10
2023-08-19T22:59:23.734Z,15.63
2023-08-19T23:01:50.766Z,13.68
2023-08-19T23:04:17.765Z,15.00
2023-08-19T23:06:44.789Z,10.43
2023-08-19T23:09:11.793Z,12.30
2023-08-19T23:11:38.746Z,13.55
2023-08-19T23:14:05.684Z,12.88
2023-08-19T23:16:32.693Z,15.63
2023-08-19T23:18:59.722Z,10.77
2023-08-19T23:21:35.812Z,9.98
2023-08-19T23:24:10.949Z,15.32
2023-08-19T23:26:37.893Z,19.00
2023-08-19T23:29:05.399Z,13.07
2023-08-19T23:31:32.558Z,12.73
2023-08-19T23:33:59.623Z,13.45
2023-08-19T23:36:26.737Z,10.68
2023-08-19T23:38:53.670Z,11.68
2023-08-19T23:41:20.664Z,14.00
2023-08-19T23:43:47.675Z,10.35
2023-08-19T23:46:14.723Z,12.57
2023-08-19T23:48:42.014Z,13.10
2023-08-19T23:51:08.988Z,11.90
2023-08-19T23:53:37.754Z,11.73
2023-08-19T23:56:05.567Z,12.82
2023-08-19T23:58:32.809Z,15.38
